createdAt,value
2018-10-01T00:01:03.186Z,15.93
2018-10-01T00:03:31.555Z,11.70
2018-10-01T00:06:00.389Z,11.27
2018-10-01T00:08:28.717Z,10.23
2018-10-01T00:10:57.050Z,16.70
2018-10-01T00:13:25.382Z,12.10
2018-10-01T00:15:53.694Z,10.77
2018-10-01T00:18:22.081Z,16.20
2018-10-01T00:20:55.825Z,9.90
2018-10-01T00:23:24.155Z,10.70
2018-10-01T00:25:52.484Z,15.73
2018-10-01T00:28:20.916Z,13.80
2018-10-01T00:30:49.244Z,13.10
2018-10-01T00:33:17.756Z,11.43
2018-10-01T00:35:46.082Z,12.07
2018-10-01T00:38:15.420Z,14.90
2018-10-01T00:40:43.749Z,15.57
2018-10-01T00:43:12.090Z,19.00
2018-10-01T00:45:40.432Z,21.00
2018-10-01T00:48:08.760Z,15.17
2018-10-01T00:50:37.990Z,15.77
2018-10-01T00:53:08.836Z,16.43
2018-10-01T00:55:39.664Z,19.57
2018-10-01T00:58:08.684Z,15.90
2018-10-01T01:00:38.741Z,13.30
2018-10-01T01:03:08.216Z,13.33
2018-10-01T01:05:38.493Z,19.00
2018-10-01T01:08:08.658Z,15.20
2018-10-01T01:10:39.364Z,19.70
2018-10-01T01:13:10.002Z,12.97
2018-10-01T01:15:39.045Z,16.87
2018-10-01T01:18:08.421Z,20.07
2018-10-01T01:20:38.363Z,12.20
2018-10-01T01:23:07.825Z,15.93
2018-10-01T01:25:38.081Z,12.80
2018-10-01T01:28:07.497Z,12.00
2018-10-01T01:30:37.906Z,12.47
2018-10-01T01:33:07.537Z,12.60
2018-10-01T01:35:36.909Z,10.80
2018-10-01T01:38:06.828Z,18.53
2018-10-01T01:40:37.265Z,12.00
2018-10-01T01:43:07.253Z,13.10
2018-10-01T01:45:37.621Z,12.03
2018-10-01T01:48:07.181Z,16.23
2018-10-01T01:50:37.296Z,13.83
2018-10-01T01:53:10.181Z,9.97
2018-10-01T01:55:40.861Z,10.83
2018-10-01T01:58:09.545Z,17.30
2018-10-01T02:00:40.313Z,12.87
2018-10-01T02:03:09.580Z,10.73
2018-10-01T02:05:39.945Z,16.73
2018-10-01T02:08:09.180Z,20.53
2018-10-01T02:10:39.970Z,11.07
2018-10-01T02:13:09.385Z,15.77
2018-10-01T02:15:40.109Z,9.10
2018-10-01T02:18:09.473Z,10.80
2018-10-01T02:20:38.371Z,14.73
2018-10-01T02:23:08.737Z,11.33
2018-10-01T02:25:38.768Z,10.83
2018-10-01T02:28:08.197Z,11.70
2018-10-01T02:30:37.258Z,12.97
2018-10-01T02:33:06.174Z,10.10
2018-10-01T02:35:34.501Z,12.20
2018-10-01T02:38:02.840Z,11.60
2018-10-01T02:40:32.221Z,8.83
2018-10-01T02:43:00.925Z,14.47
2018-10-01T02:45:29.933Z,10.33
2018-10-01T02:47:58.311Z,11.03
2018-10-01T02:50:26.730Z,11.13
2018-10-01T02:53:01.057Z,11.80
2018-10-01T02:55:29.412Z,11.80
2018-10-01T02:57:58.608Z,10.57
2018-10-01T03:00:26.965Z,17.37
2018-10-01T03:02:56.201Z,18.43
2018-10-01T03:05:24.783Z,12.33
2018-10-01T03:07:53.118Z,13.53
2018-10-01T03:10:21.445Z,13.33
2018-10-01T03:12:49.801Z,13.23
2018-10-01T03:15:18.466Z,12.53
2018-10-01T03:17:46.862Z,11.13
2018-10-01T03:20:15.258Z,11.90
2018-10-01T03:22:43.648Z,10.80
2018-10-01T03:25:11.973Z,11.67
2018-10-01T03:27:40.301Z,12.43
2018-10-01T03:30:10.865Z,11.83
2018-10-01T03:32:39.675Z,9.43
2018-10-01T03:35:08.842Z,14.07
2018-10-01T03:37:38.114Z,14.03
2018-10-01T03:40:07.758Z,9.97
2018-10-01T03:42:37.001Z,8.63
2018-10-01T03:45:06.622Z,8.43
2018-10-01T03:47:34.956Z,12.30
2018-10-01T03:50:03.672Z,12.43
2018-10-01T03:52:33.113Z,9.90
2018-10-01T03:55:03.347Z,11.87
2018-10-01T03:57:32.525Z,21.13
2018-10-01T04:00:01.809Z,14.90
2018-10-01T04:02:31.772Z,11.27
2018-10-01T04:05:00.135Z,14.77
2018-10-01T04:07:28.514Z,21.87
2018-10-01T04:09:56.841Z,17.73
2018-10-01T04:12:25.172Z,19.00
2018-10-01T04:14:53.527Z,14.07
2018-10-01T04:17:21.857Z,12.60
2018-10-01T04:19:50.180Z,16.23
2018-10-01T04:22:22.497Z,13.00
2018-10-01T04:24:50.829Z,14.50
2018-10-01T04:27:19.250Z,16.50
2018-10-01T04:29:47.597Z,19.70
2018-10-01T04:32:15.955Z,22.77
2018-10-01T04:34:44.345Z,13.17
2018-10-01T04:37:12.673Z,16.10
2018-10-01T04:39:41.001Z,16.93
2018-10-01T04:42:09.547Z,23.77
2018-10-01T04:44:38.629Z,22.00
2018-10-01T04:47:07.670Z,21.57
2018-10-01T04:49:36.183Z,16.20
2018-10-01T04:52:04.539Z,25.10
2018-10-01T04:54:33.261Z,20.63
2018-10-01T04:57:02.229Z,26.50
2018-10-01T04:59:31.045Z,17.97
2018-10-01T05:01:59.529Z,23.70
2018-10-01T05:04:27.863Z,21.13
2018-10-01T05:06:56.225Z,20.43
2018-10-01T05:09:24.614Z,15.33
2018-10-01T05:11:52.987Z,14.97
2018-10-01T05:14:21.373Z,11.67
2018-10-01T05:16:49.700Z,13.53
2018-10-01T05:19:18.047Z,19.27
2018-10-01T05:21:46.404Z,20.70
2018-10-01T05:24:14.756Z,12.37
2018-10-01T05:26:43.099Z,18.20
2018-10-01T05:29:11.437Z,21.50
2018-10-01T05:31:40.132Z,13.33
2018-10-01T05:34:09.804Z,12.43
2018-10-01T05:36:39.889Z,13.87
2018-10-01T05:39:09.882Z,13.20
2018-10-01T05:41:39.434Z,15.70
2018-10-01T05:44:08.623Z,15.60
2018-10-01T05:46:37.863Z,16.97
2018-10-01T05:49:07.735Z,13.80
2018-10-01T05:51:37.150Z,14.03
2018-10-01T05:54:06.108Z,14.13
2018-10-01T05:56:34.457Z,15.83
2018-10-01T05:59:02.853Z,18.23
2018-10-01T06:01:32.086Z,14.07
2018-10-01T06:04:01.090Z,14.57
2018-10-01T06:06:31.016Z,12.63
2018-10-01T06:09:00.937Z,15.50
2018-10-01T06:11:29.253Z,16.03
2018-10-01T06:13:58.613Z,10.23
2018-10-01T06:16:26.934Z,17.17
2018-10-01T06:18:55.261Z,17.93
2018-10-01T06:21:23.805Z,12.33
2018-10-01T06:23:52.144Z,19.03
2018-10-01T06:26:20.789Z,13.83
2018-10-01T06:28:49.142Z,11.13
2018-10-01T06:31:17.472Z,22.67
2018-10-01T06:33:46.813Z,12.70
2018-10-01T06:36:15.202Z,13.40
2018-10-01T06:38:43.502Z,13.63
2018-10-01T06:41:12.161Z,12.93
2018-10-01T06:43:40.491Z,14.53
2018-10-01T06:46:08.818Z,16.17
2018-10-01T06:48:38.290Z,13.73
2018-10-01T06:51:06.939Z,15.07
2018-10-01T06:53:36.256Z,13.10
2018-10-01T06:56:04.589Z,13.07
2018-10-01T06:58:32.913Z,10.30
2018-10-01T07:01:01.996Z,17.13
2018-10-01T07:03:31.620Z,12.13
2018-10-01T07:06:00.337Z,10.77
2018-10-01T07:08:30.478Z,10.77
2018-10-01T07:11:00.145Z,14.40
2018-10-01T07:13:28.773Z,14.30
2018-10-01T07:15:57.133Z,16.27
2018-10-01T07:18:25.466Z,10.73
2018-10-01T07:20:54.840Z,19.03
2018-10-01T07:23:23.311Z,12.53
2018-10-01T07:25:51.521Z,14.53
2018-10-01T07:28:20.752Z,8.77
2018-10-01T07:30:50.113Z,19.37
2018-10-01T07:33:18.440Z,17.60
2018-10-01T07:35:46.807Z,14.40
2018-10-01T07:38:15.204Z,13.87
2018-10-01T07:40:43.537Z,12.13
2018-10-01T07:43:11.921Z,8.43
2018-10-01T07:45:40.263Z,14.60
2018-10-01T07:48:09.529Z,13.40
2018-10-01T07:50:38.818Z,11.43
2018-10-01T07:53:08.188Z,10.43
2018-10-01T07:55:38.349Z,14.83
2018-10-01T07:58:06.697Z,10.93
2018-10-01T08:00:37.150Z,11.63
2018-10-01T08:03:06.961Z,9.60
2018-10-01T08:05:36.853Z,7.50
2018-10-01T08:08:06.758Z,17.70
2018-10-01T08:10:36.930Z,10.60
2018-10-01T08:13:07.673Z,10.50
2018-10-01T08:15:38.064Z,14.90
2018-10-01T08:18:08.319Z,10.17
2018-10-01T08:20:39.013Z,12.93
2018-10-01T08:23:08.865Z,13.00
2018-10-01T08:25:39.163Z,13.80
2018-10-01T08:28:08.160Z,12.90
2018-10-01T08:30:37.224Z,12.90
2018-10-01T08:33:06.159Z,19.40
2018-10-01T08:35:34.531Z,10.37
2018-10-01T08:38:02.899Z,13.70
2018-10-01T08:40:33.098Z,8.50
2018-10-01T08:43:02.969Z,11.63
2018-10-01T08:45:32.144Z,20.63
2018-10-01T08:48:02.121Z,12.63
2018-10-01T08:50:39.905Z,9.73
2018-10-01T08:53:13.854Z,10.80
2018-10-01T08:55:43.237Z,11.50
2018-10-01T08:58:11.785Z,13.20
2018-10-01T09:00:41.130Z,11.67
2018-10-01T09:03:09.489Z,16.53
2018-10-01T09:05:39.296Z,10.40
2018-10-01T09:08:08.892Z,10.80
2018-10-01T09:10:38.893Z,8.97
2018-10-01T09:13:08.871Z,18.33
2018-10-01T09:15:38.773Z,11.93
2018-10-01T09:18:09.121Z,10.67
2018-10-01T09:20:39.560Z,13.83
2018-10-01T09:23:09.915Z,16.13
2018-10-01T09:25:39.918Z,10.23
2018-10-01T09:28:08.901Z,13.90
2018-10-01T09:30:38.323Z,9.50
2018-10-01T09:33:08.989Z,11.40
2018-10-01T09:35:38.385Z,14.33
2018-10-01T09:38:06.785Z,8.00
2018-10-01T09:40:35.203Z,9.77
2018-10-01T09:43:03.528Z,12.73
2018-10-01T09:45:32.452Z,14.03
2018-10-01T09:48:02.461Z,16.37
2018-10-01T09:50:31.334Z,9.50
2018-10-01T09:53:00.151Z,14.93
2018-10-01T09:55:29.401Z,24.63
2018-10-01T09:57:59.488Z,21.93
2018-10-01T10:01:37.400Z,33.07
2018-10-01T10:04:05.872Z,20.00
2018-10-01T10:06:34.148Z,18.90
2018-10-01T10:09:03.001Z,14.83
2018-10-01T10:11:32.243Z,17.57
2018-10-01T10:14:01.256Z,19.10
2018-10-01T10:16:31.220Z,15.10
2018-10-01T10:19:01.237Z,13.33
2018-10-01T10:21:30.487Z,17.60
2018-10-01T10:23:58.820Z,28.50
2018-10-01T10:26:27.161Z,19.40
2018-10-01T10:28:55.515Z,14.23
2018-10-01T10:31:23.845Z,14.33
2018-10-01T10:33:53.073Z,21.50
2018-10-01T10:36:21.410Z,20.37
2018-10-01T10:38:49.870Z,20.23
2018-10-01T10:41:18.228Z,18.63
2018-10-01T10:43:46.641Z,16.93
2018-10-01T10:46:15.054Z,15.00
2018-10-01T10:48:43.401Z,18.00
2018-10-01T10:51:12.004Z,17.13
2018-10-01T10:53:40.578Z,20.00
2018-10-01T10:56:09.023Z,24.33
2018-10-01T10:58:38.049Z,22.93
2018-10-01T11:01:07.181Z,15.63
2018-10-01T11:03:36.240Z,21.00
2018-10-01T11:06:06.227Z,18.90
2018-10-01T11:08:34.690Z,22.27
2018-10-01T11:11:03.085Z,13.37
2018-10-01T11:13:32.108Z,14.73
2018-10-01T11:16:01.421Z,18.73
2018-10-01T11:18:30.233Z,14.50
2018-10-01T11:20:58.638Z,20.10
2018-10-01T11:23:26.993Z,10.37
2018-10-01T11:25:56.265Z,11.40
2018-10-01T11:28:24.654Z,10.83
2018-10-01T11:30:53.081Z,11.40
2018-10-01T11:33:21.611Z,11.03
2018-10-01T11:35:49.950Z,11.03
2018-10-01T11:38:19.541Z,11.30
2018-10-01T11:40:47.894Z,11.47
2018-10-01T11:43:16.238Z,7.80
2018-10-01T11:45:45.804Z,11.50
2018-10-01T11:48:15.011Z,11.20
2018-10-01T11:50:43.475Z,9.70
2018-10-01T11:53:11.889Z,10.60
2018-10-01T11:55:40.225Z,11.00
2018-10-01T11:58:09.961Z,11.60
2018-10-01T12:00:38.853Z,14.30
2018-10-01T12:03:08.071Z,12.27
2018-10-01T12:05:38.136Z,16.03
2018-10-01T12:08:07.229Z,11.17
2018-10-01T12:10:37.195Z,11.73
2018-10-01T12:13:06.059Z,11.77
2018-10-01T12:15:37.110Z,12.07
2018-10-01T12:18:07.113Z,9.00
2018-10-01T12:20:37.090Z,12.13
2018-10-01T12:23:06.105Z,12.53
2018-10-01T12:25:34.427Z,8.00
2018-10-01T12:28:03.525Z,14.43
2018-10-01T12:30:32.460Z,16.07
2018-10-01T12:33:01.337Z,11.50
2018-10-01T12:35:31.397Z,9.67
2018-10-01T12:38:00.288Z,11.90
2018-10-01T12:40:28.741Z,13.33
2018-10-01T12:42:57.963Z,16.90
2018-10-01T12:45:27.271Z,14.90
2018-10-01T12:47:56.456Z,15.83
2018-10-01T12:50:24.913Z,12.20
2018-10-01T12:52:53.210Z,11.47
2018-10-01T12:55:22.438Z,12.30
2018-10-01T12:57:50.781Z,12.03
2018-10-01T13:00:19.125Z,12.30
2018-10-01T13:02:47.467Z,6.90
2018-10-01T13:05:15.895Z,5.30
2018-10-01T13:07:45.401Z,8.37
2018-10-01T13:10:14.313Z,7.90
2018-10-01T13:12:43.577Z,6.20
2018-10-01T13:15:11.973Z,6.07
2018-10-01T13:17:40.321Z,6.30
2018-10-01T13:20:09.156Z,3.10
2018-10-01T13:22:38.124Z,6.93
2018-10-01T13:25:07.346Z,5.13
2018-10-01T13:27:37.246Z,6.63
2018-10-01T13:30:08.339Z,8.33
2018-10-01T13:32:38.408Z,4.00
2018-10-01T13:35:07.207Z,2.90
2018-10-01T13:37:37.329Z,4.50
2018-10-01T13:40:07.147Z,5.10
2018-10-01T13:42:36.204Z,9.80
2018-10-01T13:45:04.643Z,2.77
2018-10-01T13:47:34.373Z,3.93
2018-10-01T13:50:03.605Z,3.43
2018-10-01T13:52:33.379Z,4.00
2018-10-01T13:55:02.308Z,4.20
2018-10-01T13:57:32.278Z,2.37
2018-10-01T14:00:01.312Z,2.83
2018-10-01T14:02:31.321Z,4.47
2018-10-01T14:05:01.402Z,4.27
2018-10-01T14:07:31.607Z,9.23
2018-10-01T14:10:01.489Z,2.20
2018-10-01T14:12:31.345Z,7.93
2018-10-01T14:15:00.357Z,2.07
2018-10-01T14:17:28.728Z,4.50
2018-10-01T14:19:58.261Z,5.30
2018-10-01T14:22:27.525Z,7.57
2018-10-01T14:24:55.936Z,7.57
2018-10-01T14:27:24.288Z,9.10
2018-10-01T14:29:53.666Z,7.50
2018-10-01T14:32:21.997Z,7.10
2018-10-01T14:34:51.298Z,6.83
2018-10-01T14:37:19.633Z,5.53
2018-10-01T14:39:48.002Z,7.33
2018-10-01T14:42:16.451Z,6.03
2018-10-01T14:44:45.708Z,6.47
2018-10-01T14:47:14.037Z,6.77
2018-10-01T14:49:43.395Z,8.70
2018-10-01T14:52:11.729Z,5.23
2018-10-01T14:54:40.068Z,5.83
2018-10-01T14:57:09.051Z,2.77
2018-10-01T14:59:38.192Z,3.83
2018-10-01T15:02:09.943Z,2.10
2018-10-01T15:04:39.531Z,3.30
2018-10-01T15:07:08.648Z,3.73
2018-10-01T15:09:38.014Z,1.80
2018-10-01T15:12:07.340Z,1.70
2018-10-01T15:14:36.242Z,2.57
2018-10-01T15:17:04.594Z,1.53
2018-10-01T15:19:33.500Z,3.80
2018-10-01T15:22:02.788Z,4.63
2018-10-01T15:24:31.492Z,6.20
2018-10-01T15:27:01.469Z,3.37
2018-10-01T15:29:30.418Z,6.03
2018-10-01T15:31:58.833Z,3.57
2018-10-01T15:34:28.305Z,3.80
2018-10-01T15:36:56.647Z,5.07
2018-10-01T15:39:24.986Z,2.70
2018-10-01T15:41:53.749Z,2.83
2018-10-01T15:44:22.126Z,1.60
2018-10-01T15:46:50.469Z,7.60
2018-10-01T15:49:18.814Z,2.73
2018-10-01T15:51:47.133Z,2.07
2018-10-01T15:54:16.466Z,3.63
2018-10-01T15:56:45.007Z,2.50
2018-10-01T15:59:14.338Z,3.43
2018-10-01T16:01:43.615Z,7.67
2018-10-01T16:04:12.821Z,8.23
2018-10-01T16:06:42.179Z,10.60
2018-10-01T16:09:11.513Z,8.20
2018-10-01T16:11:40.041Z,4.73
2018-10-01T16:14:08.929Z,9.57
2018-10-01T16:16:39.101Z,3.90
2018-10-01T16:19:08.010Z,3.20
2018-10-01T16:21:36.998Z,4.60
2018-10-01T16:24:06.579Z,2.90
2018-10-01T16:26:34.922Z,2.57
2018-10-01T16:29:03.626Z,5.00
2018-10-01T16:31:33.710Z,4.10
2018-10-01T16:34:02.675Z,5.53
2018-10-01T16:36:31.504Z,3.57
2018-10-01T16:39:00.524Z,5.07
2018-10-01T16:41:28.861Z,4.10
2018-10-01T16:43:57.203Z,3.90
2018-10-01T16:46:25.622Z,2.70
2018-10-01T16:48:54.023Z,5.33
2018-10-01T16:51:22.419Z,4.60
2018-10-01T16:53:50.742Z,4.90
2018-10-01T16:56:20.078Z,6.63
2018-10-01T16:58:48.472Z,10.73
2018-10-01T17:01:16.804Z,11.40
2018-10-01T17:03:45.127Z,6.93
2018-10-01T17:06:13.471Z,8.27
2018-10-01T17:08:41.801Z,6.80
2018-10-01T17:11:10.264Z,6.00
2018-10-01T17:13:39.953Z,9.03
2018-10-01T17:16:09.012Z,14.07
2018-10-01T17:18:37.996Z,6.60
2018-10-01T17:21:07.296Z,14.10
2018-10-01T17:23:37.148Z,8.23
2018-10-01T17:26:06.185Z,10.47
2018-10-01T17:28:34.609Z,12.93
2018-10-01T17:31:03.645Z,9.27
2018-10-01T17:33:32.604Z,9.03
2018-10-01T17:36:01.689Z,11.83
2018-10-01T17:38:30.605Z,8.60
2018-10-01T17:40:59.005Z,11.10
2018-10-01T17:43:27.366Z,11.83
2018-10-01T17:45:55.769Z,9.80
2018-10-01T17:48:24.362Z,9.93
2018-10-01T17:50:52.701Z,7.60
2018-10-01T17:53:21.034Z,11.73
2018-10-01T17:55:49.414Z,11.37
2018-10-01T17:58:18.119Z,7.70
2018-10-01T18:00:46.487Z,8.97
2018-10-01T18:03:15.733Z,15.20
2018-10-01T18:05:45.148Z,8.87
2018-10-01T18:08:13.764Z,9.03
2018-10-01T18:10:43.118Z,8.20
2018-10-01T18:13:11.470Z,10.80
2018-10-01T18:15:39.877Z,7.63
2018-10-01T18:18:09.323Z,14.40
2018-10-01T18:20:38.470Z,14.47
2018-10-01T18:23:08.639Z,10.98
2018-10-01T18:25:37.959Z,9.20
2018-10-01T18:28:07.212Z,5.73
2018-10-01T18:30:36.258Z,9.73
2018-10-01T18:33:04.637Z,5.13
2018-10-01T18:35:34.796Z,9.73
2018-10-01T18:38:03.169Z,10.67
2018-10-01T18:40:32.539Z,8.00
2018-10-01T18:43:01.653Z,8.53
2018-10-01T18:45:30.520Z,9.80
2018-10-01T18:47:58.909Z,6.20
2018-10-01T18:50:27.238Z,6.83
2018-10-01T18:52:56.597Z,5.60
2018-10-01T18:55:24.937Z,3.93
2018-10-01T18:57:53.337Z,3.20
2018-10-01T19:00:21.713Z,2.17
2018-10-01T19:02:51.010Z,4.70
2018-10-01T19:05:19.459Z,4.93
2018-10-01T19:07:48.773Z,3.53
2018-10-01T19:10:17.277Z,2.87
2018-10-01T19:12:46.696Z,2.63
2018-10-01T19:15:15.029Z,4.90
2018-10-01T19:17:43.620Z,5.33
2018-10-01T19:20:11.949Z,3.37
2018-10-01T19:22:40.357Z,1.70
2018-10-01T19:25:09.320Z,1.53
2018-10-01T19:27:38.661Z,3.77
2018-10-01T19:30:07.701Z,2.00
2018-10-01T19:32:37.081Z,1.43
2018-10-01T19:35:06.318Z,2.13
2018-10-01T19:37:34.723Z,2.93
2018-10-01T19:40:03.749Z,2.77
2018-10-01T19:42:34.389Z,2.60
2018-10-01T19:45:03.355Z,5.17
2018-10-01T19:47:32.609Z,2.40
2018-10-01T19:50:02.546Z,2.43
2018-10-01T19:52:31.581Z,2.90
2018-10-01T19:55:00.619Z,2.50
2018-10-01T19:57:28.942Z,1.83
2018-10-01T19:59:57.330Z,2.60
2018-10-01T20:02:25.653Z,1.83
2018-10-01T20:04:55.211Z,1.27
2018-10-01T20:07:23.573Z,1.40
2018-10-01T20:09:51.982Z,1.53
2018-10-01T20:12:20.385Z,2.13
2018-10-01T20:14:49.731Z,1.47
2018-10-01T20:17:18.118Z,1.50
2018-10-01T20:19:46.970Z,2.50
2018-10-01T20:22:15.412Z,2.57
2018-10-01T20:24:44.702Z,2.17
2018-10-01T20:27:13.388Z,3.30
2018-10-01T20:29:42.674Z,5.00
2018-10-01T20:32:10.888Z,3.00
2018-10-01T20:34:39.241Z,2.90
2018-10-01T20:37:08.752Z,3.10
2018-10-01T20:39:37.797Z,2.60
2018-10-01T20:42:07.180Z,3.17
2018-10-01T20:44:36.281Z,2.97
2018-10-01T20:47:06.155Z,2.13
2018-10-01T20:49:34.549Z,2.60
2018-10-01T20:52:03.075Z,2.40
2018-10-01T20:54:32.169Z,1.70
2018-10-01T20:57:01.179Z,3.60
2018-10-01T20:59:31.217Z,5.87
2018-10-01T21:01:59.593Z,2.10
2018-10-01T21:04:27.972Z,1.90
2018-10-01T21:06:57.318Z,1.73
2018-10-01T21:09:25.646Z,2.60
2018-10-01T21:11:54.035Z,1.67
2018-10-01T21:14:22.472Z,1.50
2018-10-01T21:16:52.522Z,1.90
2018-10-01T21:19:21.976Z,1.83
2018-10-01T21:21:51.278Z,5.37
2018-10-01T21:24:19.606Z,5.43
2018-10-01T21:26:48.037Z,2.27
2018-10-01T21:29:16.417Z,2.57
2018-10-01T21:31:44.772Z,1.53
2018-10-01T21:34:14.241Z,2.80
2018-10-01T21:36:43.540Z,5.33
2018-10-01T21:39:21.781Z,4.73
2018-10-01T21:41:51.276Z,2.13
2018-10-01T21:44:19.705Z,2.73
2018-10-01T21:46:48.099Z,6.87
2018-10-01T21:49:16.585Z,2.13
2018-10-01T21:51:44.947Z,2.90
2018-10-01T21:54:14.189Z,4.27
2018-10-01T21:56:42.521Z,2.40
2018-10-01T21:59:10.861Z,1.73
2018-10-01T22:01:40.811Z,3.03
2018-10-01T22:04:09.325Z,5.47
2018-10-01T22:06:38.681Z,3.43
2018-10-01T22:09:08.393Z,4.90
2018-10-01T22:11:36.720Z,9.47
2018-10-01T22:14:07.101Z,4.30
2018-10-01T22:16:36.536Z,4.00
2018-10-01T22:19:04.875Z,3.57
2018-10-01T22:21:34.209Z,3.80
2018-10-01T22:24:03.237Z,6.87
2018-10-01T22:26:32.645Z,6.30
2018-10-01T22:29:01.849Z,2.93
2018-10-01T22:31:30.668Z,10.67
2018-10-01T22:33:58.997Z,5.10
2018-10-01T22:36:27.333Z,6.80
2018-10-01T22:38:55.688Z,2.80
2018-10-01T22:41:24.010Z,1.60
2018-10-01T22:43:52.337Z,10.83
2018-10-01T22:46:20.661Z,6.60
2018-10-01T22:48:49.017Z,2.97
2018-10-01T22:51:17.354Z,7.30
2018-10-01T22:53:45.669Z,4.00
2018-10-01T22:56:13.994Z,3.07
2018-10-01T22:58:43.238Z,6.10
2018-10-01T23:01:11.586Z,5.27
2018-10-01T23:03:39.916Z,4.03
2018-10-01T23:06:09.597Z,1.53
2018-10-01T23:08:38.976Z,2.80
2018-10-01T23:11:09.375Z,4.40
2018-10-01T23:13:38.648Z,2.80
2018-10-01T23:16:08.388Z,4.40
2018-10-01T23:18:37.464Z,3.17
2018-10-01T23:21:07.365Z,8.47
2018-10-01T23:23:36.323Z,5.90
2018-10-01T23:26:06.364Z,3.20
2018-10-01T23:28:35.751Z,5.37
2018-10-01T23:31:05.120Z,4.57
2018-10-01T23:33:34.346Z,4.13
2018-10-01T23:36:03.768Z,3.60
2018-10-01T23:38:34.612Z,4.77
2018-10-01T23:41:03.934Z,3.77
2018-10-01T23:43:33.348Z,9.13
2018-10-01T23:46:03.969Z,4.87
2018-10-01T23:48:34.759Z,3.17
2018-10-01T23:51:03.793Z,4.23
2018-10-01T23:53:33.045Z,9.43
2018-10-01T23:56:03.200Z,5.63
2018-10-01T23:58:34.036Z,3.93
